This is the latest recevied weather packets stored in our database for station/object KC4GS-13. If no packets are shown the sender has not sent any weather packets the latest 10 day(s).
| Time | Temp. | Humidity | Pressure | Rain* | Wind** | Luminosity | Snow |
|---|---|---|---|---|---|---|---|
| 1778015485 | 28.89° C | 40% | 1014.7 hPa | 0 mm | - | 403 W/m² | - |
| 1778015181 | 29.44° C | 39% | 1014.9 hPa | 0 mm | - | 294 W/m² | - |
| 1778014878 | 29.44° C | 40% | 1015 hPa | 0 mm | - | 410 W/m² | - |
| 1778014576 | 29.44° C | 39% | 1014.7 hPa | 0 mm | - | 373 W/m² | - |
| 1778014274 | 28.89° C | 40% | 1014.7 hPa | 0 mm | - | 262 W/m² | - |
| 1778013970 | 29.44° C | 38% | 1014.9 hPa | 0 mm | - | 425 W/m² | - |
| 1778013668 | 30° C | 38% | 1015.1 hPa | 0 mm | - | 585 W/m² | - |
| 1778013364 | 28.89° C | 39% | 1015.4 hPa | 0 mm | - | 615 W/m² | - |
| 1778013062 | 28.33° C | 41% | 1015.3 hPa | 0 mm | - | 434 W/m² | - |
| 1778012757 | 28.89° C | 40% | 1015.4 hPa | 0 mm | - | 232 W/m² | - |
| 1778012454 | 28.33° C | 41% | 1015.4 hPa | 0 mm | - | 538 W/m² | - |
| 1778012150 | 28.89° C | 39% | 1015.3 hPa | 0 mm | - | 280 W/m² | - |
| 1778011848 | 28.89° C | 40% | 1015.5 hPa | 0 mm | - | 583 W/m² | - |
| 1778011546 | 29.44° C | 40% | 1015.4 hPa | 0 mm | - | 477 W/m² | - |
| 1778011242 | 28.33° C | 42% | 1015.5 hPa | 0 mm | - | 182 W/m² | - |
| 1778010939 | 28.89° C | 40% | 1015.6 hPa | 0 mm | - | 204 W/m² | - |
| 1778010637 | 29.44° C | 39% | 1015.7 hPa | 0 mm | - | 356 W/m² | - |
| 1778010333 | 29.44° C | 39% | 1015.7 hPa | 0 mm | - | 555 W/m² | - |
| 1778010028 | 28.89° C | 41% | 1015.7 hPa | 0 mm | - | 791 W/m² | - |
| 1778009726 | 30° C | 38% | 1016 hPa | 0 mm | - | 143 W/m² | - |
| 1778009423 | 30° C | 37% | 1016 hPa | 0 mm | - | 775 W/m² | - |
| 1778009122 | 30° C | 38% | 1016 hPa | 0 mm | - | 764 W/m² | - |
| 1778008819 | 28.89° C | 40% | 1016.4 hPa | 0 mm | - | 797 W/m² | - |
| 1778008517 | 27.78° C | 42% | 1016.4 hPa | 0 mm | - | 177 W/m² | - |
| 1778008214 | 28.33° C | 40% | 1016.3 hPa | 0 mm | - | 547 W/m² | - |
* Rain latest hour (hover to see other rain measurements)
** Current wind speed in m/s (hover to see current wind gust speed)